Time;durP1;ratioP1;P1;durP2;ratioP2;P2;SDS_P1;SDS_P2;PMS_P1;PMS_P2;Temp;Humidity;BMP_temperature;BMP_pressure;BME280_temperature;BME280_humidity;BME280_pressure;Samples;Min_cycle;Max_cycle;Signal;HPM_P1;HPM_P2
2021/10/07 00:00:43;;;;;;;10.77;5.90;;;;;;;;;;5053696;28;20039;-84
2021/10/07 00:03:08;;;;;;;13.02;6.00;;;;;;;;;;5056907;28;20082;-87
2021/10/07 00:05:34;;;;;;;9.40;5.72;;;;;;;;;;5040664;28;20729;-85
2021/10/07 00:07:59;;;;;;;13.02;5.72;;;;;;;;;;5075926;28;20028;-83
2021/10/07 00:10:25;;;;;;;11.15;6.05;;;;;;;;;;5051618;28;20035;-85
2021/10/07 00:12:51;;;;;;;10.30;6.13;;;;;;;;;;5053085;28;20021;-84
2021/10/07 00:15:16;;;;;;;13.38;5.93;;;;;;;;;;5046584;28;20036;-84
2021/10/07 00:17:41;;;;;;;9.77;6.22;;;;;;;;;;5036844;28;20415;-83
2021/10/07 00:20:10;;;;;;;9.73;6.30;;;;;;;;;;5059993;28;20028;-85
2021/10/07 00:22:38;;;;;;;10.82;6.45;;;;;;;;;;5056764;28;20051;-87
2021/10/07 00:25:03;;;;;;;11.23;5.82;;;;;;;;;;5072791;28;20036;-84
2021/10/07 00:27:29;;;;;;;11.50;5.57;;;;;;;;;;5055107;28;20167;-86
2021/10/07 00:29:59;;;;;;;11.02;6.35;;;;;;;;;;5057744;28;20036;-83
2021/10/07 00:32:28;;;;;;;13.38;6.15;;;;;;;;;;5038681;28;20016;-85
2021/10/07 00:40:07;;;;;;;10.07;6.32;;;;;;;;;;5070535;28;20028;-86
2021/10/07 00:42:33;;;;;;;7.88;5.85;;;;;;;;;;5059489;28;20047;-86
2021/10/07 00:44:58;;;;;;;10.35;5.85;;;;;;;;;;5054958;28;20020;-85
2021/10/07 00:47:24;;;;;;;7.50;5.47;;;;;;;;;;5037063;28;20460;-83
2021/10/07 00:49:49;;;;;;;12.10;5.88;;;;;;;;;;5026858;28;20052;-85
2021/10/07 00:52:18;;;;;;;10.93;5.97;;;;;;;;;;5046523;28;20062;-83
2021/10/07 00:54:47;;;;;;;9.90;6.03;;;;;;;;;;5051105;28;20471;-84
2021/10/07 00:57:19;;;;;;;9.63;6.15;;;;;;;;;;5049210;28;20032;-85
2021/10/07 00:59:51;;;;;;;10.43;5.95;;;;;;;;;;5055125;28;20085;-87
2021/10/07 01:02:17;;;;;;;11.75;5.95;;;;;;;;;;5041785;28;20029;-85
2021/10/07 01:04:43;;;;;;;8.02;5.63;;;;;;;;;;5055872;28;20032;-87
2021/10/07 01:07:09;;;;;;;7.90;5.32;;;;;;;;;;5039470;28;20028;-85
2021/10/07 01:09:35;;;;;;;8.88;5.43;;;;;;;;;;5040321;28;20090;-85
2021/10/07 01:12:03;;;;;;;8.57;5.55;;;;;;;;;;5070626;28;20548;-85
2021/10/07 01:14:47;;;;;;;8.07;5.53;;;;;;;;;;5074276;28;20036;-84
2021/10/07 01:17:17;;;;;;;11.82;6.65;;;;;;;;;;5048829;28;20047;-87
2021/10/07 01:19:45;;;;;;;12.82;6.75;;;;;;;;;;5036707;28;20032;-87
2021/10/07 01:22:11;;;;;;;8.35;5.70;;;;;;;;;;5055515;28;20028;-87
2021/10/07 01:24:37;;;;;;;8.50;5.28;;;;;;;;;;5036148;28;20090;-84
2021/10/07 01:27:03;;;;;;;7.15;5.25;;;;;;;;;;5035632;28;20395;-87
2021/10/07 01:29:29;;;;;;;9.40;5.22;;;;;;;;;;5029798;28;20039;-83
2021/10/07 01:31:55;;;;;;;8.55;5.30;;;;;;;;;;5057097;28;20029;-83
2021/10/07 01:34:25;;;;;;;8.00;5.38;;;;;;;;;;5044214;28;20035;-87
2021/10/07 01:36:51;;;;;;;7.55;4.65;;;;;;;;;;5068697;28;20024;-87
2021/10/07 01:39:17;;;;;;;7.13;4.18;;;;;;;;;;5054519;28;20035;-84
2021/10/07 01:41:43;;;;;;;7.30;4.40;;;;;;;;;;5071379;28;20092;-83
2021/10/07 01:44:08;;;;;;;5.68;4.10;;;;;;;;;;5032915;28;20038;-84
2021/10/07 01:46:34;;;;;;;6.10;4.25;;;;;;;;;;5079184;28;20048;-84
2021/10/07 01:49:00;;;;;;;5.10;4.28;;;;;;;;;;5038714;28;20040;-84
2021/10/07 01:51:26;;;;;;;5.13;3.45;;;;;;;;;;5050493;28;20075;-85
2021/10/07 01:53:51;;;;;;;4.68;3.80;;;;;;;;;;5032573;28;20055;-84
2021/10/07 01:56:17;;;;;;;5.20;4.05;;;;;;;;;;5038121;28;20555;-86
2021/10/07 01:58:42;;;;;;;5.35;4.30;;;;;;;;;;5031154;28;20113;-84
2021/10/07 02:01:07;;;;;;;4.75;3.88;;;;;;;;;;5073029;28;20032;-85
2021/10/07 02:03:33;;;;;;;5.13;4.15;;;;;;;;;;5038594;28;20024;-87
2021/10/07 02:05:58;;;;;;;5.10;4.10;;;;;;;;;;5053386;28;20111;-83
2021/10/07 02:08:24;;;;;;;4.80;3.97;;;;;;;;;;5047339;28;20031;-84
2021/10/07 02:10:49;;;;;;;5.03;3.78;;;;;;;;;;5020969;28;20119;-83
2021/10/07 02:13:14;;;;;;;4.70;3.72;;;;;;;;;;5029804;28;20025;-83
2021/10/07 02:15:40;;;;;;;5.20;3.97;;;;;;;;;;5030202;28;20383;-83
2021/10/07 02:18:05;;;;;;;5.78;4.18;;;;;;;;;;5035798;28;20399;-83
2021/10/07 02:20:31;;;;;;;5.07;3.90;;;;;;;;;;5036997;28;20086;-83
2021/10/07 02:22:56;;;;;;;6.13;4.20;;;;;;;;;;5057231;28;20094;-85
2021/10/07 02:25:22;;;;;;;4.78;4.18;;;;;;;;;;5049392;28;20032;-83
2021/10/07 02:27:47;;;;;;;6.22;4.15;;;;;;;;;;5072520;28;20032;-85
2021/10/07 02:30:16;;;;;;;5.13;4.53;;;;;;;;;;5021719;28;20040;-87
2021/10/07 02:32:42;;;;;;;5.57;4.53;;;;;;;;;;5067219;28;20020;-83
2021/10/07 02:35:08;;;;;;;5.50;4.32;;;;;;;;;;5057578;28;20031;-83
2021/10/07 02:37:34;;;;;;;5.72;4.40;;;;;;;;;;5037121;28;20119;-87
2021/10/07 02:40:00;;;;;;;5.22;4.45;;;;;;;;;;5047258;28;20067;-83
2021/10/07 02:42:25;;;;;;;6.35;5.00;;;;;;;;;;5038340;28;20040;-87
2021/10/07 02:44:51;;;;;;;5.50;4.80;;;;;;;;;;5051816;28;20024;-84
2021/10/07 02:47:17;;;;;;;5.90;4.95;;;;;;;;;;5061988;28;20029;-84
2021/10/07 02:49:42;;;;;;;6.43;5.28;;;;;;;;;;5035126;28;20388;-84
2021/10/07 02:52:08;;;;;;;6.05;5.45;;;;;;;;;;5013942;28;20033;-84
2021/10/07 02:54:33;;;;;;;7.00;5.35;;;;;;;;;;5024556;28;20029;-85
2021/10/07 02:56:59;;;;;;;7.28;5.65;;;;;;;;;;5037815;28;20402;-87
2021/10/07 02:59:24;;;;;;;8.55;5.57;;;;;;;;;;5056502;28;20025;-85
2021/10/07 03:01:49;;;;;;;9.70;6.25;;;;;;;;;;5022229;28;20395;-85
2021/10/07 03:04:15;;;;;;;6.93;6.13;;;;;;;;;;5049834;28;20020;-83
2021/10/07 03:06:41;;;;;;;6.78;5.93;;;;;;;;;;5043933;28;20033;-83
2021/10/07 03:09:07;;;;;;;8.63;6.22;;;;;;;;;;5038355;28;20029;-85
2021/10/07 03:11:32;;;;;;;7.28;6.15;;;;;;;;;;5044294;28;20052;-85
2021/10/07 03:13:58;;;;;;;7.22;6.32;;;;;;;;;;5057194;28;20028;-87
2021/10/07 03:16:23;;;;;;;7.35;6.15;;;;;;;;;;5040645;28;20021;-87
2021/10/07 03:18:48;;;;;;;8.50;6.25;;;;;;;;;;5023246;28;20419;-85
2021/10/07 03:21:14;;;;;;;7.90;6.22;;;;;;;;;;5061317;28;20028;-84
2021/10/07 03:23:39;;;;;;;7.80;5.78;;;;;;;;;;5038885;28;20029;-83
2021/10/07 03:26:05;;;;;;;7.85;6.30;;;;;;;;;;5062009;28;20025;-84
2021/10/07 03:28:30;;;;;;;7.13;6.28;;;;;;;;;;5022696;28;20037;-85
2021/10/07 03:30:56;;;;;;;8.13;6.88;;;;;;;;;;5052747;28;20032;-87
2021/10/07 03:33:21;;;;;;;11.70;6.68;;;;;;;;;;5038423;28;20491;-84
2021/10/07 03:35:46;;;;;;;9.60;7.05;;;;;;;;;;5038877;28;20092;-83
2021/10/07 03:38:12;;;;;;;16.92;6.88;;;;;;;;;;5049612;28;20063;-87
2021/10/07 03:40:38;;;;;;;15.07;6.47;;;;;;;;;;5037138;28;20041;-84
2021/10/07 03:43:03;;;;;;;7.45;6.60;;;;;;;;;;5059491;28;20391;-86
2021/10/07 03:45:29;;;;;;;7.88;6.95;;;;;;;;;;5036899;28;20051;-83
2021/10/07 03:47:54;;;;;;;7.47;6.53;;;;;;;;;;5040221;28;20025;-87
2021/10/07 03:50:20;;;;;;;7.18;5.88;;;;;;;;;;5036617;28;20060;-84
2021/10/07 03:52:46;;;;;;;7.35;6.25;;;;;;;;;;5051984;28;20056;-84
2021/10/07 03:55:13;;;;;;;7.57;6.13;;;;;;;;;;5036931;28;20053;-84
2021/10/07 03:57:38;;;;;;;7.35;6.22;;;;;;;;;;5039729;28;20082;-83
2021/10/07 04:00:07;;;;;;;11.13;6.28;;;;;;;;;;5060427;28;20686;-83
2021/10/07 04:02:32;;;;;;;8.38;6.18;;;;;;;;;;5050221;28;20036;-85
2021/10/07 04:04:57;;;;;;;8.10;6.20;;;;;;;;;;5027485;28;20544;-87
2021/10/07 04:07:23;;;;;;;7.85;6.35;;;;;;;;;;5026111;28;20028;-85
2021/10/07 04:09:48;;;;;;;7.72;6.60;;;;;;;;;;5038753;28;20047;-87
2021/10/07 04:12:14;;;;;;;7.60;6.45;;;;;;;;;;5042277;28;20764;-87
2021/10/07 04:14:39;;;;;;;8.27;6.95;;;;;;;;;;5071274;28;20417;-85
2021/10/07 04:17:04;;;;;;;9.10;7.07;;;;;;;;;;5047262;28;20032;-87
2021/10/07 04:19:30;;;;;;;7.88;6.90;;;;;;;;;;5055474;28;20032;-85
2021/10/07 04:21:55;;;;;;;13.88;7.10;;;;;;;;;;5029030;28;20490;-87
2021/10/07 04:24:21;;;;;;;12.68;6.90;;;;;;;;;;5044569;28;20070;-85
2021/10/07 04:26:46;;;;;;;16.83;7.15;;;;;;;;;;5038674;28;20485;-83
2021/10/07 04:29:12;;;;;;;10.10;7.70;;;;;;;;;;5047066;28;20450;-83
2021/10/07 04:31:38;;;;;;;10.15;7.53;;;;;;;;;;5038485;28;20033;-86
2021/10/07 04:34:05;;;;;;;9.20;7.43;;;;;;;;;;5038237;28;20451;-84
2021/10/07 04:36:30;;;;;;;8.82;7.28;;;;;;;;;;5042849;28;20036;-84
2021/10/07 04:38:56;;;;;;;10.13;7.85;;;;;;;;;;5058123;28;20020;-84
2021/10/07 04:41:21;;;;;;;39.83;9.55;;;;;;;;;;5050924;28;20086;-83
2021/10/07 04:43:47;;;;;;;11.35;8.13;;;;;;;;;;5064677;28;20435;-83
2021/10/07 04:46:12;;;;;;;11.85;7.03;;;;;;;;;;5053282;28;20032;-83
2021/10/07 04:48:38;;;;;;;11.75;6.57;;;;;;;;;;5036681;28;20029;-87
2021/10/07 04:51:03;;;;;;;7.32;6.32;;;;;;;;;;5062669;28;20098;-87
2021/10/07 04:53:29;;;;;;;7.28;6.45;;;;;;;;;;5038299;28;20143;-84
2021/10/07 04:55:58;;;;;;;9.45;6.68;;;;;;;;;;5038514;28;20024;-84
2021/10/07 04:58:24;;;;;;;7.43;6.38;;;;;;;;;;5024157;28;20039;-84
2021/10/07 05:00:50;;;;;;;7.10;6.10;;;;;;;;;;5058927;28;20512;-84
2021/10/07 05:03:16;;;;;;;7.82;6.10;;;;;;;;;;5059906;28;20035;-84
2021/10/07 05:05:43;;;;;;;7.72;6.38;;;;;;;;;;5040235;28;20438;-83
2021/10/07 05:08:09;;;;;;;10.63;7.07;;;;;;;;;;5054655;28;20032;-84
2021/10/07 05:10:34;;;;;;;7.40;6.60;;;;;;;;;;5050472;28;20039;-85
2021/10/07 05:13:00;;;;;;;10.70;7.43;;;;;;;;;;5034733;28;20052;-87
2021/10/07 05:15:25;;;;;;;8.95;6.85;;;;;;;;;;5058787;28;20459;-84
2021/10/07 05:17:52;;;;;;;12.50;7.60;;;;;;;;;;5035900;28;20110;-83
2021/10/07 05:20:17;;;;;;;10.40;7.50;;;;;;;;;;5049919;28;20041;-88
2021/10/07 05:22:43;;;;;;;10.85;7.53;;;;;;;;;;5051121;28;20440;-83
2021/10/07 05:25:09;;;;;;;9.52;7.60;;;;;;;;;;5050776;28;20052;-84
2021/10/07 05:27:35;;;;;;;15.10;8.52;;;;;;;;;;5053152;28;20021;-87
2021/10/07 05:30:05;;;;;;;15.90;9.52;;;;;;;;;;5030425;28;20033;-83
2021/10/07 05:32:31;;;;;;;13.65;9.90;;;;;;;;;;5046975;28;20021;-84
2021/10/07 05:34:57;;;;;;;12.43;9.65;;;;;;;;;;5053931;28;20036;-87
2021/10/07 05:37:23;;;;;;;12.30;9.48;;;;;;;;;;5028259;28;20567;-85
2021/10/07 05:39:48;;;;;;;17.33;10.27;;;;;;;;;;5019048;28;20059;-84
2021/10/07 05:42:14;;;;;;;13.20;9.77;;;;;;;;;;5054237;28;20058;-84
2021/10/07 05:44:39;;;;;;;12.85;9.77;;;;;;;;;;5051703;28;20032;-88
2021/10/07 05:47:05;;;;;;;22.33;10.10;;;;;;;;;;5017583;28;20060;-85
2021/10/07 05:49:31;;;;;;;16.35;10.15;;;;;;;;;;5034738;28;20490;-83
2021/10/07 05:51:56;;;;;;;20.02;11.10;;;;;;;;;;5054189;28;20032;-84
2021/10/07 05:54:22;;;;;;;18.80;10.80;;;;;;;;;;5056176;28;20028;-87
2021/10/07 05:56:48;;;;;;;38.00;11.88;;;;;;;;;;5035302;28;20033;-83
2021/10/07 05:59:14;;;;;;;15.90;10.85;;;;;;;;;;5035557;28;20075;-83
2021/10/07 06:01:41;;;;;;;35.22;11.18;;;;;;;;;;5054529;28;20024;-84
2021/10/07 06:04:06;;;;;;;23.95;11.85;;;;;;;;;;5044678;28;20033;-85
2021/10/07 06:06:31;;;;;;;28.85;11.40;;;;;;;;;;5038785;28;20059;-83
2021/10/07 06:08:57;;;;;;;22.70;11.45;;;;;;;;;;5033480;28;20028;-87
2021/10/07 06:11:22;;;;;;;23.77;11.55;;;;;;;;;;5055429;28;20486;-87
2021/10/07 06:13:48;;;;;;;30.75;9.85;;;;;;;;;;5054912;28;20024;-83
2021/10/07 06:16:13;;;;;;;22.23;9.95;;;;;;;;;;5064549;28;20036;-87
2021/10/07 06:18:39;;;;;;;26.00;9.73;;;;;;;;;;5016786;28;20033;-83
2021/10/07 06:21:04;;;;;;;27.55;8.65;;;;;;;;;;5054642;28;20028;-87
2021/10/07 06:23:30;;;;;;;16.65;9.75;;;;;;;;;;5035680;28;20381;-87
2021/10/07 06:25:56;;;;;;;13.63;8.50;;;;;;;;;;5055658;28;20088;-84
2021/10/07 06:28:21;;;;;;;17.50;8.70;;;;;;;;;;5037309;28;20086;-83
2021/10/07 06:30:47;;;;;;;19.00;8.93;;;;;;;;;;5050497;28;20056;-84
2021/10/07 06:33:12;;;;;;;23.13;8.45;;;;;;;;;;5046271;28;20028;-84
2021/10/07 06:35:38;;;;;;;18.05;8.40;;;;;;;;;;5048558;28;20029;-84
2021/10/07 06:38:04;;;;;;;13.23;8.60;;;;;;;;;;5038594;28;20039;-87
2021/10/07 06:40:30;;;;;;;11.82;8.25;;;;;;;;;;5051455;28;20033;-86
2021/10/07 06:42:56;;;;;;;17.40;8.00;;;;;;;;;;5045644;28;20024;-87
2021/10/07 06:45:22;;;;;;;19.42;7.47;;;;;;;;;;5012578;28;20029;-87
2021/10/07 06:47:47;;;;;;;11.38;7.75;;;;;;;;;;5065985;28;20032;-85
2021/10/07 06:50:12;;;;;;;11.70;8.20;;;;;;;;;;5038124;28;20056;-87
2021/10/07 06:52:41;;;;;;;12.73;8.50;;;;;;;;;;5036384;28;20032;-84
2021/10/07 06:55:09;;;;;;;12.88;8.13;;;;;;;;;;5064747;28;20475;-87
2021/10/07 06:57:36;;;;;;;16.77;7.38;;;;;;;;;;5030170;28;20113;-87
2021/10/07 07:00:04;;;;;;;14.80;8.20;;;;;;;;;;5038845;28;20467;-85
2021/10/07 07:02:29;;;;;;;11.25;8.07;;;;;;;;;;5047210;28;20041;-85
2021/10/07 07:04:54;;;;;;;13.88;8.23;;;;;;;;;;5030226;28;20040;-85
2021/10/07 07:07:20;;;;;;;11.50;8.15;;;;;;;;;;5047134;28;20032;-83
2021/10/07 07:09:45;;;;;;;10.80;7.97;;;;;;;;;;5046308;28;20024;-85
2021/10/07 07:12:11;;;;;;;12.77;8.00;;;;;;;;;;5050181;28;20063;-85
2021/10/07 07:14:36;;;;;;;12.30;8.27;;;;;;;;;;5026827;28;20032;-84
2021/10/07 07:17:02;;;;;;;12.40;8.55;;;;;;;;;;5034191;28;20035;-83
2021/10/07 07:19:27;;;;;;;12.73;8.80;;;;;;;;;;5050595;28;20040;-83
2021/10/07 07:21:58;;;;;;;16.02;7.88;;;;;;;;;;5026698;28;20028;-87
2021/10/07 07:24:23;;;;;;;12.75;8.00;;;;;;;;;;5045957;28;20115;-83
2021/10/07 07:26:49;;;;;;;10.18;7.75;;;;;;;;;;5015654;28;20128;-87
2021/10/07 07:29:14;;;;;;;10.27;7.95;;;;;;;;;;5029844;28;20429;-85
2021/10/07 07:31:40;;;;;;;13.82;8.43;;;;;;;;;;5032292;28;20040;-86
2021/10/07 07:34:05;;;;;;;12.65;7.57;;;;;;;;;;5033792;28;20036;-84
2021/10/07 07:36:31;;;;;;;13.80;7.65;;;;;;;;;;5019621;28;20040;-87
2021/10/07 07:38:57;;;;;;;11.18;8.27;;;;;;;;;;5020347;28;20029;-84
2021/10/07 07:41:23;;;;;;;11.52;8.32;;;;;;;;;;5031761;28;20128;-85
2021/10/07 07:43:48;;;;;;;9.77;7.75;;;;;;;;;;5036292;28;20120;-83
2021/10/07 07:46:17;;;;;;;11.85;7.95;;;;;;;;;;5035759;28;20504;-84
2021/10/07 07:48:44;;;;;;;11.65;8.23;;;;;;;;;;5030178;28;20471;-84
2021/10/07 07:51:09;;;;;;;16.27;8.40;;;;;;;;;;5048205;28;20126;-84
2021/10/07 07:53:34;;;;;;;10.55;7.93;;;;;;;;;;5038937;28;20032;-84
2021/10/07 07:56:00;;;;;;;11.85;8.00;;;;;;;;;;5051144;28;20020;-85
2021/10/07 07:58:25;;;;;;;11.38;8.48;;;;;;;;;;5047161;28;20025;-85
2021/10/07 08:00:51;;;;;;;12.30;8.77;;;;;;;;;;5032674;28;20059;-87
2021/10/07 08:03:16;;;;;;;13.60;8.85;;;;;;;;;;5036050;28;20043;-83
2021/10/07 08:05:42;;;;;;;12.10;8.05;;;;;;;;;;5023636;28;20038;-87
2021/10/07 08:08:08;;;;;;;13.30;8.43;;;;;;;;;;5038081;28;20173;-87
2021/10/07 08:10:35;;;;;;;13.30;8.52;;;;;;;;;;5030869;28;20086;-84
2021/10/07 08:13:01;;;;;;;10.70;7.95;;;;;;;;;;5045975;28;20372;-83
2021/10/07 08:15:27;;;;;;;11.13;8.45;;;;;;;;;;5035124;28;20163;-83
2021/10/07 08:17:53;;;;;;;13.27;8.88;;;;;;;;;;5044307;28;20482;-84
2021/10/07 08:20:20;;;;;;;12.23;8.55;;;;;;;;;;5053782;28;20028;-85
2021/10/07 08:22:47;;;;;;;11.60;8.60;;;;;;;;;;5031359;28;20037;-83
2021/10/07 08:25:16;;;;;;;11.13;8.25;;;;;;;;;;5059285;28;20029;-85
2021/10/07 08:27:42;;;;;;;11.40;8.48;;;;;;;;;;5049801;28;20056;-84
2021/10/07 08:30:10;;;;;;;14.00;8.88;;;;;;;;;;5046605;28;20025;-85
2021/10/07 08:32:35;;;;;;;16.23;8.30;;;;;;;;;;5050516;28;20027;-85
2021/10/07 08:35:01;;;;;;;11.27;8.20;;;;;;;;;;5056112;28;20028;-83
2021/10/07 08:37:41;;;;;;;15.15;8.57;;;;;;;;;;5062479;28;20387;-87
2021/10/07 08:40:16;;;;;;;11.38;7.70;;;;;;;;;;5035484;28;20029;-85
2021/10/07 08:42:42;;;;;;;10.93;7.88;;;;;;;;;;5042389;28;20116;-84
2021/10/07 08:45:10;;;;;;;13.52;7.88;;;;;;;;;;5048272;28;20035;-85
2021/10/07 08:47:41;;;;;;;11.98;8.35;;;;;;;;;;5043507;28;20098;-83
2021/10/07 08:50:09;;;;;;;11.85;8.35;;;;;;;;;;5063531;28;20113;-87
2021/10/07 08:52:34;;;;;;;11.13;7.88;;;;;;;;;;5048687;28;20520;-84
2021/10/07 08:55:00;;;;;;;11.52;8.45;;;;;;;;;;5046936;28;20032;-84
2021/10/07 08:57:26;;;;;;;11.65;8.77;;;;;;;;;;5030884;28;20055;-83
2021/10/07 08:59:51;;;;;;;13.48;8.73;;;;;;;;;;5033391;28;20029;-83
2021/10/07 09:02:28;;;;;;;16.88;9.05;;;;;;;;;;5033053;28;20055;-83
2021/10/07 09:05:04;;;;;;;16.92;9.27;;;;;;;;;;5062338;28;20468;-84
2021/10/07 09:07:29;;;;;;;13.93;8.48;;;;;;;;;;5049288;28;20043;-84
2021/10/07 09:09:56;;;;;;;15.60;9.30;;;;;;;;;;5014013;28;20025;-87
2021/10/07 09:12:21;;;;;;;13.75;9.45;;;;;;;;;;5033164;28;20032;-83
2021/10/07 09:14:48;;;;;;;14.75;9.48;;;;;;;;;;5044567;28;20054;-87
2021/10/07 09:17:17;;;;;;;14.05;9.63;;;;;;;;;;5048586;28;20042;-84
2021/10/07 09:19:45;;;;;;;14.50;10.02;;;;;;;;;;5051081;28;20080;-83
2021/10/07 09:22:21;;;;;;;15.43;9.55;;;;;;;;;;5061040;28;20074;-87
2021/10/07 09:24:58;;;;;;;16.98;9.77;;;;;;;;;;5050153;28;20043;-83
2021/10/07 09:27:29;;;;;;;15.38;10.07;;;;;;;;;;5053303;28;20042;-85
2021/10/07 09:30:08;;;;;;;14.70;9.95;;;;;;;;;;5044922;28;20332;-84
2021/10/07 09:32:47;;;;;;;14.80;9.85;;;;;;;;;;5045681;28;20024;-85
2021/10/07 09:35:17;;;;;;;15.02;9.57;;;;;;;;;;5048888;28;20048;-85
2021/10/07 09:37:47;;;;;;;16.88;10.73;;;;;;;;;;5030892;28;20033;-86
2021/10/07 09:40:41;;;;;;;16.17;9.45;;;;;;;;;;5036234;28;20027;-80
2021/10/07 09:43:07;;;;;;;12.70;8.90;;;;;;;;;;5047225;28;20048;-84
2021/10/07 09:45:34;;;;;;;16.17;10.55;;;;;;;;;;5020171;28;20086;-82
2021/10/07 09:48:04;;;;;;;17.83;10.63;;;;;;;;;;5049402;28;20031;-86
2021/10/07 09:50:39;;;;;;;18.17;11.38;;;;;;;;;;5065360;28;20068;-83
2021/10/07 09:53:11;;;;;;;15.20;10.02;;;;;;;;;;5065148;28;20544;-84
2021/10/07 09:55:40;;;;;;;17.33;10.38;;;;;;;;;;5065225;28;20476;-86
2021/10/07 09:58:20;;;;;;;19.17;11.27;;;;;;;;;;5050491;28;20020;-84
2021/10/07 10:00:56;;;;;;;19.20;11.27;;;;;;;;;;5036505;28;20031;-84
2021/10/07 10:03:30;;;;;;;19.77;11.82;;;;;;;;;;5034678;28;20036;-83
2021/10/07 10:05:56;;;;;;;20.67;12.68;;;;;;;;;;5050146;28;20375;-86
2021/10/07 10:08:22;;;;;;;20.02;11.73;;;;;;;;;;5045089;28;20127;-83
2021/10/07 10:10:49;;;;;;;19.35;12.38;;;;;;;;;;5025364;28;20036;-88
2021/10/07 10:13:16;;;;;;;22.90;13.05;;;;;;;;;;5043217;28;20084;-84
2021/10/07 10:15:42;;;;;;;20.83;12.27;;;;;;;;;;5059837;28;20044;-87
2021/10/07 10:18:09;;;;;;;19.00;12.32;;;;;;;;;;5062460;28;20025;-85
2021/10/07 10:20:38;;;;;;;20.83;12.93;;;;;;;;;;5072905;28;20087;-85
2021/10/07 10:23:14;;;;;;;19.42;12.10;;;;;;;;;;5070070;28;20476;-85
2021/10/07 10:25:59;;;;;;;20.38;12.27;;;;;;;;;;5069509;28;20037;-87
2021/10/07 10:28:46;;;;;;;20.50;13.00;;;;;;;;;;5048020;28;20036;-85
2021/10/07 10:31:28;;;;;;;22.38;12.48;;;;;;;;;;5051255;28;20037;-88
2021/10/07 10:37:31;;;;;;;19.25;12.10;;;;;;;;;;4976147;28;20706;-85
2021/10/07 10:40:08;;;;;;;22.38;12.77;;;;;;;;;;4977067;28;20176;-88
2021/10/07 10:42:34;;;;;;;21.80;12.65;;;;;;;;;;4960835;28;20485;-84
2021/10/07 10:45:03;;;;;;;19.85;12.48;;;;;;;;;;4996432;28;20068;-85
2021/10/07 10:47:45;;;;;;;17.88;11.65;;;;;;;;;;5035149;28;20063;-84
2021/10/07 10:50:15;;;;;;;21.90;12.88;;;;;;;;;;5052666;28;20080;-85
2021/10/07 10:52:54;;;;;;;18.58;11.90;;;;;;;;;;5075367;28;20399;-87
2021/10/07 10:55:24;;;;;;;19.25;12.02;;;;;;;;;;5052219;28;20419;-84
2021/10/07 10:58:01;;;;;;;24.10;13.18;;;;;;;;;;5070351;28;20017;-85
2021/10/07 11:00:28;;;;;;;26.10;14.15;;;;;;;;;;5058034;28;20436;-87
2021/10/07 11:03:14;;;;;;;19.77;12.85;;;;;;;;;;5040243;28;20079;-85
2021/10/07 11:06:02;;;;;;;20.00;12.82;;;;;;;;;;5073853;28;20020;-86
2021/10/07 11:08:32;;;;;;;20.85;12.73;;;;;;;;;;5059428;28;20387;-84
2021/10/07 11:11:02;;;;;;;22.58;13.55;;;;;;;;;;5034578;28;20493;-84
2021/10/07 11:13:33;;;;;;;22.02;13.18;;;;;;;;;;5070223;28;20023;-83
2021/10/07 11:16:01;;;;;;;22.42;13.07;;;;;;;;;;5049679;28;20020;-84
2021/10/07 11:18:36;;;;;;;20.38;13.55;;;;;;;;;;5073401;28;20103;-83
2021/10/07 11:21:22;;;;;;;21.95;13.55;;;;;;;;;;5056871;28;20492;-84
2021/10/07 11:23:53;;;;;;;26.92;12.73;;;;;;;;;;5074593;28;20064;-85
2021/10/07 11:26:20;;;;;;;23.35;13.30;;;;;;;;;;5055939;28;20051;-84
2021/10/07 11:28:48;;;;;;;23.98;13.70;;;;;;;;;;5051023;28;20020;-85
2021/10/07 11:31:19;;;;;;;21.75;12.40;;;;;;;;;;5056195;28;20035;-87
2021/10/07 11:33:53;;;;;;;19.27;12.02;;;;;;;;;;5057783;28;20032;-83
2021/10/07 11:36:21;;;;;;;18.55;12.32;;;;;;;;;;5049123;28;20085;-83
2021/10/07 11:38:50;;;;;;;20.05;12.73;;;;;;;;;;5058714;28;20040;-85
2021/10/07 11:41:17;;;;;;;20.40;13.00;;;;;;;;;;5056830;28;20550;-84
2021/10/07 11:43:44;;;;;;;22.13;14.10;;;;;;;;;;5051262;28;20020;-84
2021/10/07 11:46:12;;;;;;;24.40;14.00;;;;;;;;;;5041666;28;20025;-83
2021/10/07 11:51:23;;;;;;;20.92;13.43;;;;;;;;;;1228803;23;20379;-83
2021/10/07 11:53:54;;;;;;;22.52;13.77;;;;;;;;;;4989664;28;20423;-84
2021/10/07 11:56:25;;;;;;;22.80;13.77;;;;;;;;;;4974517;28;20138;-84
2021/10/07 11:59:00;;;;;;;20.02;13.15;;;;;;;;;;4987789;28;20057;-83
2021/10/07 12:01:30;;;;;;;21.20;13.63;;;;;;;;;;5010846;28;20121;-84
2021/10/07 12:03:57;;;;;;;21.38;13.70;;;;;;;;;;5010580;28;20898;-85
2021/10/07 12:06:24;;;;;;;22.40;14.25;;;;;;;;;;4979404;28;20044;-85
2021/10/07 12:08:49;;;;;;;21.35;13.70;;;;;;;;;;4978645;28;20037;-86
2021/10/07 12:11:20;;;;;;;21.55;13.32;;;;;;;;;;4995041;28;20401;-83
2021/10/07 12:13:48;;;;;;;20.45;13.05;;;;;;;;;;4996284;28;20489;-87
2021/10/07 12:16:52;;;;;;;22.10;13.93;;;;;;;;;;4996919;28;20026;-87
2021/10/07 12:19:20;;;;;;;;;;;;;;;;;;4960460;28;20241;-84
2021/10/07 12:22:00;;;;;;;21.80;13.43;;;;;;;;;;4980441;28;19921;-85
2021/10/07 12:24:29;;;;;;;20.58;13.48;;;;;;;;;;4992351;28;20096;-87
2021/10/07 12:26:57;;;;;;;21.02;13.95;;;;;;;;;;4994589;28;20038;-83
2021/10/07 12:29:25;;;;;;;21.13;13.77;;;;;;;;;;4990686;28;20034;-83
2021/10/07 12:32:00;;;;;;;21.08;13.77;;;;;;;;;;4991795;28;20025;-86
2021/10/07 12:34:28;;;;;;;21.10;13.55;;;;;;;;;;4992283;28;20033;-85
2021/10/07 12:36:54;;;;;;;20.80;13.85;;;;;;;;;;4977223;28;20103;-83
2021/10/07 12:39:27;;;;;;;22.73;13.25;;;;;;;;;;4980108;28;20044;-84
2021/10/07 12:42:02;;;;;;;21.88;13.25;;;;;;;;;;4991331;28;20026;-86
2021/10/07 12:44:31;;;;;;;16.65;12.13;;;;;;;;;;4992007;28;20032;-83
2021/10/07 12:47:00;;;;;;;19.83;12.85;;;;;;;;;;4991669;28;20111;-86
2021/10/07 12:49:43;;;;;;;20.23;12.88;;;;;;;;;;4971524;28;20057;-84
2021/10/07 12:52:30;;;;;;;20.27;12.95;;;;;;;;;;5008129;28;20022;-86
2021/10/07 12:55:00;;;;;;;21.45;13.35;;;;;;;;;;4996945;28;20029;-83
2021/10/07 12:57:38;;;;;;;19.08;12.57;;;;;;;;;;4993658;28;20159;-86
2021/10/07 13:00:16;;;;;;;19.42;13.20;;;;;;;;;;4989463;28;20038;-86
2021/10/07 13:02:41;;;;;;;21.30;14.13;;;;;;;;;;4991979;28;20130;-83
2021/10/07 13:05:15;;;;;;;20.27;14.38;;;;;;;;;;4978992;28;20234;-86
2021/10/07 13:07:41;;;;;;;21.92;14.80;;;;;;;;;;4981338;28;20053;-84
2021/10/07 13:10:07;;;;;;;20.95;13.85;;;;;;;;;;4958918;28;20058;-84
2021/10/07 13:12:33;;;;;;;19.75;13.82;;;;;;;;;;4995449;28;20377;-83
2021/10/07 13:14:59;;;;;;;19.83;12.85;;;;;;;;;;4979204;28;20072;-86
2021/10/07 13:17:26;;;;;;;19.23;12.88;;;;;;;;;;4980244;28;20068;-87
2021/10/07 13:19:51;;;;;;;22.15;13.65;;;;;;;;;;4988988;28;20030;-84
2021/10/07 13:22:17;;;;;;;21.30;13.80;;;;;;;;;;5007056;28;20156;-86
2021/10/07 13:24:43;;;;;;;21.85;12.95;;;;;;;;;;4976776;28;20105;-84
2021/10/07 13:27:10;;;;;;;21.83;13.98;;;;;;;;;;4992893;28;20041;-84
2021/10/07 13:29:36;;;;;;;20.13;13.30;;;;;;;;;;4992037;28;20029;-84
2021/10/07 13:32:02;;;;;;;20.50;13.88;;;;;;;;;;4989282;28;20433;-83
2021/10/07 13:34:28;;;;;;;22.13;13.32;;;;;;;;;;4978460;28;20080;-84
2021/10/07 13:36:53;;;;;;;21.42;13.70;;;;;;;;;;4962437;28;20045;-86
2021/10/07 13:39:19;;;;;;;20.05;13.30;;;;;;;;;;4968478;28;20560;-86
2021/10/07 13:41:44;;;;;;;17.33;12.55;;;;;;;;;;4959614;28;20069;-83
2021/10/07 13:44:10;;;;;;;22.70;13.20;;;;;;;;;;4959155;28;20037;-83
2021/10/07 13:46:35;;;;;;;20.27;12.00;;;;;;;;;;4990044;28;20104;-83
2021/10/07 13:49:01;;;;;;;19.88;12.88;;;;;;;;;;4974625;28;20038;-84
2021/10/07 13:51:30;;;;;;;16.90;12.43;;;;;;;;;;4994466;28;20116;-83
2021/10/07 13:53:55;;;;;;;18.05;11.65;;;;;;;;;;4993288;28;20046;-84
2021/10/07 13:56:21;;;;;;;18.45;12.48;;;;;;;;;;4976757;28;20084;-83
2021/10/07 13:58:46;;;;;;;18.90;12.98;;;;;;;;;;4978169;28;20485;-83
2021/10/07 14:01:11;;;;;;;17.92;12.43;;;;;;;;;;5006170;28;20041;-85
2021/10/07 14:03:37;;;;;;;17.80;12.93;;;;;;;;;;4981412;28;20037;-85
2021/10/07 14:06:03;;;;;;;20.55;12.73;;;;;;;;;;5009261;28;20436;-86
2021/10/07 14:08:29;;;;;;;18.40;13.02;;;;;;;;;;4996872;28;20475;-86
2021/10/07 14:10:55;;;;;;;19.50;12.68;;;;;;;;;;4987606;28;20374;-86
2021/10/07 14:13:21;;;;;;;18.98;12.88;;;;;;;;;;4978389;28;20171;-84
2021/10/07 14:15:47;;;;;;;18.85;12.98;;;;;;;;;;4994628;28;20513;-86
2021/10/07 14:18:12;;;;;;;20.20;13.98;;;;;;;;;;4977338;28;20066;-84
2021/10/07 14:20:42;;;;;;;23.30;14.18;;;;;;;;;;4975905;28;20084;-85
2021/10/07 14:23:11;;;;;;;21.88;13.75;;;;;;;;;;4981117;28;20727;-86
2021/10/07 14:25:42;;;;;;;20.63;13.27;;;;;;;;;;4989397;28;20023;-83
2021/10/07 14:28:11;;;;;;;20.55;13.70;;;;;;;;;;4981897;28;20034;-82
2021/10/07 14:30:39;;;;;;;18.55;13.02;;;;;;;;;;4968752;28;20044;-86
2021/10/07 14:33:14;;;;;;;20.83;13.88;;;;;;;;;;4947503;28;20026;-84
2021/10/07 14:35:43;;;;;;;19.83;14.10;;;;;;;;;;4998181;28;20097;-85
2021/10/07 14:38:15;;;;;;;20.20;14.32;;;;;;;;;;4998981;28;20687;-85
2021/10/07 14:40:44;;;;;;;21.02;14.02;;;;;;;;;;4981022;28;20038;-87
2021/10/07 14:43:18;;;;;;;19.90;13.93;;;;;;;;;;4965728;28;20033;-83